createdAt,value
2023-03-17T00:08:36.391Z,99836.91
2023-03-17T00:18:38.740Z,99836.75
2023-03-17T00:28:40.888Z,99840.75
2023-03-17T00:38:42.984Z,99859.63
2023-03-17T00:48:45.767Z,99855.25
2023-03-17T00:58:48.658Z,99850.16
2023-03-17T01:08:52.639Z,99883.41
2023-03-17T01:18:54.815Z,99870.00
2023-03-17T01:28:58.871Z,99865.00
2023-03-17T01:39:01.653Z,99863.22
2023-03-17T01:49:25.820Z,99852.50
2023-03-17T01:59:33.965Z,99825.22
2023-03-17T02:09:36.523Z,99809.47
2023-03-17T02:19:38.978Z,99787.00
2023-03-17T02:29:42.144Z,99770.88
2023-03-17T02:39:44.540Z,99765.22
2023-03-17T02:49:46.862Z,99770.66
2023-03-17T02:59:49.567Z,99785.25
2023-03-17T03:09:51.740Z,99766.34
2023-03-17T03:19:53.838Z,99785.78
2023-03-17T03:29:55.961Z,99788.59
2023-03-17T03:39:58.053Z,99777.81
2023-03-17T03:50:00.436Z,99769.28
2023-03-17T04:00:04.964Z,99758.84
2023-03-17T04:10:15.970Z,99744.66
2023-03-17T04:20:19.295Z,99753.13
2023-03-17T04:30:21.636Z,99739.22
2023-03-17T04:40:23.736Z,99754.66
2023-03-17T04:50:26.696Z,99743.34
2023-03-17T05:00:29.358Z,99755.13
2023-03-17T05:10:32.332Z,99748.50
2023-03-17T05:20:34.657Z,99762.72
2023-03-17T05:30:36.881Z,99753.31
2023-03-17T05:40:40.124Z,99752.16
2023-03-17T05:50:42.671Z,99745.69
2023-03-17T06:00:46.426Z,99758.09
2023-03-17T06:10:48.835Z,99766.69
2023-03-17T06:20:50.959Z,99751.03
2023-03-17T06:30:53.361Z,99740.56
2023-03-17T06:40:57.826Z,99745.19
2023-03-17T06:51:01.037Z,99738.78
2023-03-17T07:01:04.380Z,99756.13
2023-03-17T07:11:06.676Z,99740.84
2023-03-17T07:21:09.444Z,99736.06
2023-03-17T07:31:14.292Z,99742.56
2023-03-17T07:41:17.530Z,99741.34
2023-03-17T07:51:22.274Z,99753.09
2023-03-17T08:01:28.458Z,99730.13
2023-03-17T08:11:31.011Z,99721.25
2023-03-17T08:21:33.786Z,99728.13
2023-03-17T08:31:40.607Z,99726.25
2023-03-17T08:41:43.566Z,99745.22
2023-03-17T08:51:46.433Z,99745.06
2023-03-17T09:01:48.932Z,99736.88
2023-03-17T09:11:51.508Z,99741.94
2023-03-17T09:21:53.759Z,99753.19
2023-03-17T09:31:57.205Z,99733.34
2023-03-17T09:42:28.490Z,99735.47
2023-03-17T09:52:32.663Z,99756.19
2023-03-17T10:02:40.150Z,99745.22
2023-03-17T10:13:05.100Z,99733.09
2023-03-17T10:23:07.933Z,99730.75
2023-03-17T10:33:10.242Z,99728.16
2023-03-17T10:43:17.652Z,99708.75
2023-03-17T10:53:28.197Z,99710.00
2023-03-17T11:03:36.082Z,99712.63
2023-03-17T11:13:38.482Z,99691.06
2023-03-17T11:23:46.510Z,99670.78
2023-03-17T11:34:02.852Z,99680.91
2023-03-17T11:44:33.614Z,99668.63
2023-03-17T11:55:04.640Z,99662.13
2023-03-17T12:05:09.845Z,99661.63
2023-03-17T12:15:22.812Z,99654.03
2023-03-17T12:25:33.023Z,99653.31
2023-03-17T12:35:38.907Z,99645.19
2023-03-17T12:46:28.293Z,99634.78
2023-03-17T12:56:34.526Z,99608.78
2023-03-17T13:06:53.912Z,99608.94
2023-03-17T13:17:04.764Z,99610.06
2023-03-17T13:27:11.315Z,99600.06
2023-03-17T13:37:27.892Z,99577.97
2023-03-17T13:47:42.560Z,99572.50
2023-03-17T13:57:57.515Z,99596.44
2023-03-17T14:08:03.061Z,99578.47
2023-03-17T14:18:30.489Z,99562.31
2023-03-17T14:28:34.153Z,99558.50
2023-03-17T14:38:38.009Z,99571.34
2023-03-17T14:48:42.147Z,99570.47
2023-03-17T14:58:46.161Z,99553.63
2023-03-17T15:08:49.189Z,99551.69
2023-03-17T15:18:57.900Z,99551.59
2023-03-17T15:29:01.034Z,99555.94
2023-03-17T15:39:03.538Z,99570.53
2023-03-17T15:49:10.651Z,99566.66
2023-03-17T15:59:13.266Z,99574.84
2023-03-17T16:09:16.925Z,99549.63
2023-03-17T16:19:20.988Z,99578.06
2023-03-17T16:29:23.065Z,99592.41
2023-03-17T16:39:26.300Z,99589.66
2023-03-17T16:49:28.692Z,99583.81
2023-03-17T16:59:31.617Z,99549.63
2023-03-17T17:09:33.809Z,99597.81
2023-03-17T17:19:36.529Z,99596.84
2023-03-17T17:29:38.676Z,99596.84
2023-03-17T17:39:40.965Z,99623.66
2023-03-17T17:49:43.572Z,99621.47
2023-03-17T17:59:46.403Z,99616.13
2023-03-17T18:09:48.585Z,99660.88
2023-03-17T18:19:53.600Z,99652.69
2023-03-17T18:29:55.825Z,99643.97
2023-03-17T18:40:13.348Z,99624.69
2023-03-17T18:50:17.468Z,99664.69
2023-03-17T19:00:19.842Z,99658.38
2023-03-17T19:10:22.301Z,99617.34
2023-03-17T19:20:25.634Z,99677.84
2023-03-17T19:30:27.889Z,99682.44
2023-03-17T19:40:31.029Z,99672.63
2023-03-17T19:50:33.711Z,99662.06
2023-03-17T20:00:36.147Z,99652.19
2023-03-17T20:10:39.622Z,99662.13
2023-03-17T20:20:47.750Z,99681.81
2023-03-17T20:30:51.087Z,99690.94
2023-03-17T20:40:53.419Z,99684.78
2023-03-17T20:50:55.593Z,99693.88
2023-03-17T21:00:58.643Z,99704.63
2023-03-17T21:11:01.597Z,99706.09
2023-03-17T21:21:04.110Z,99706.25
2023-03-17T21:31:06.952Z,99715.56
2023-03-17T21:41:33.481Z,99722.31
2023-03-17T21:51:35.709Z,99719.84
2023-03-17T22:01:39.190Z,99711.94
2023-03-17T22:11:41.529Z,99719.03
2023-03-17T22:21:44.184Z,99712.41
2023-03-17T22:31:47.087Z,99719.44
2023-03-17T22:41:49.221Z,99735.47
2023-03-17T22:51:51.914Z,99747.31
2023-03-17T23:01:54.034Z,99771.00
2023-03-17T23:11:56.614Z,99760.97
2023-03-17T23:21:59.081Z,99772.78
2023-03-17T23:32:01.762Z,99771.63
2023-03-17T23:42:04.306Z,99767.78
2023-03-17T23:52:06.724Z,99773.84
